sensor_id;sensor_type;location;lat;lon;timestamp;temperature;humidity
52656;SHT85;35474;51.032;6.998;2022-07-10T00:00:34;15.69;66.33
52656;SHT85;35474;51.032;6.998;2022-07-10T00:03:02;15.59;66.68
52656;SHT85;35474;51.032;6.998;2022-07-10T00:05:30;15.59;66.42
52656;SHT85;35474;51.032;6.998;2022-07-10T00:07:57;15.65;66.25
52656;SHT85;35474;51.032;6.998;2022-07-10T00:10:24;15.55;66.52
52656;SHT85;35474;51.032;6.998;2022-07-10T00:12:51;15.48;67.02
52656;SHT85;35474;51.032;6.998;2022-07-10T00:15:18;15.48;67.07
52656;SHT85;35474;51.032;6.998;2022-07-10T00:17:44;15.55;66.69
52656;SHT85;35474;51.032;6.998;2022-07-10T00:20:12;15.45;67.03
52656;SHT85;35474;51.032;6.998;2022-07-10T00:22:40;15.58;66.63
52656;SHT85;35474;51.032;6.998;2022-07-10T00:25:10;15.42;66.80
52656;SHT85;35474;51.032;6.998;2022-07-10T00:27:38;15.43;66.80
52656;SHT85;35474;51.032;6.998;2022-07-10T00:30:05;15.38;67.32
52656;SHT85;35474;51.032;6.998;2022-07-10T00:32:33;15.39;67.17
52656;SHT85;35474;51.032;6.998;2022-07-10T00:35:00;15.25;67.42
52656;SHT85;35474;51.032;6.998;2022-07-10T00:37:28;15.11;67.95
52656;SHT85;35474;51.032;6.998;2022-07-10T00:39:55;15.24;67.54
52656;SHT85;35474;51.032;6.998;2022-07-10T00:42:22;15.30;67.43
52656;SHT85;35474;51.032;6.998;2022-07-10T00:44:48;15.11;67.77
52656;SHT85;35474;51.032;6.998;2022-07-10T00:47:15;15.27;67.56
52656;SHT85;35474;51.032;6.998;2022-07-10T00:49:45;15.20;67.65
52656;SHT85;35474;51.032;6.998;2022-07-10T00:52:15;15.21;67.52
52656;SHT85;35474;51.032;6.998;2022-07-10T00:54:44;15.27;67.56
52656;SHT85;35474;51.032;6.998;2022-07-10T00:57:12;15.12;67.88
52656;SHT85;35474;51.032;6.998;2022-07-10T00:59:43;15.05;68.25
52656;SHT85;35474;51.032;6.998;2022-07-10T01:02:11;15.03;68.38
52656;SHT85;35474;51.032;6.998;2022-07-10T01:04:39;15.08;68.55
52656;SHT85;35474;51.032;6.998;2022-07-10T01:07:05;15.10;68.46
52656;SHT85;35474;51.032;6.998;2022-07-10T01:09:32;15.07;68.61
52656;SHT85;35474;51.032;6.998;2022-07-10T01:12:00;15.07;68.58
52656;SHT85;35474;51.032;6.998;2022-07-10T01:14:28;15.00;68.84
52656;SHT85;35474;51.032;6.998;2022-07-10T01:16:58;14.88;69.05
52656;SHT85;35474;51.032;6.998;2022-07-10T01:19:25;14.74;69.70
52656;SHT85;35474;51.032;6.998;2022-07-10T01:21:51;14.85;69.29
52656;SHT85;35474;51.032;6.998;2022-07-10T01:24:18;14.84;69.67
52656;SHT85;35474;51.032;6.998;2022-07-10T01:26:44;14.69;70.03
52656;SHT85;35474;51.032;6.998;2022-07-10T01:29:11;14.67;70.15
52656;SHT85;35474;51.032;6.998;2022-07-10T01:31:38;14.64;70.37
52656;SHT85;35474;51.032;6.998;2022-07-10T01:34:08;14.66;70.18
52656;SHT85;35474;51.032;6.998;2022-07-10T01:36:36;14.59;70.59
52656;SHT85;35474;51.032;6.998;2022-07-10T01:39:03;14.63;70.56
52656;SHT85;35474;51.032;6.998;2022-07-10T01:41:31;14.70;70.37
52656;SHT85;35474;51.032;6.998;2022-07-10T01:43:57;14.66;70.48
52656;SHT85;35474;51.032;6.998;2022-07-10T01:46:24;14.57;70.83
52656;SHT85;35474;51.032;6.998;2022-07-10T01:48:51;14.48;71.04
52656;SHT85;35474;51.032;6.998;2022-07-10T01:51:19;14.53;71.15
52656;SHT85;35474;51.032;6.998;2022-07-10T01:53:46;14.63;71.03
52656;SHT85;35474;51.032;6.998;2022-07-10T01:56:13;14.72;70.63
52656;SHT85;35474;51.032;6.998;2022-07-10T01:58:40;14.80;70.26
52656;SHT85;35474;51.032;6.998;2022-07-10T02:01:08;14.95;69.80
52656;SHT85;35474;51.032;6.998;2022-07-10T02:03:35;15.15;69.19
52656;SHT85;35474;51.032;6.998;2022-07-10T02:06:20;15.24;68.80
52656;SHT85;35474;51.032;6.998;2022-07-10T02:08:47;15.15;69.08
52656;SHT85;35474;51.032;6.998;2022-07-10T02:11:13;15.07;69.46
52656;SHT85;35474;51.032;6.998;2022-07-10T02:13:40;15.00;69.92
52656;SHT85;35474;51.032;6.998;2022-07-10T02:16:07;14.98;70.15
52656;SHT85;35474;51.032;6.998;2022-07-10T02:18:34;15.05;70.00
52656;SHT85;35474;51.032;6.998;2022-07-10T02:23:57;15.25;69.66
52656;SHT85;35474;51.032;6.998;2022-07-10T02:26:24;15.12;69.58
52656;SHT85;35474;51.032;6.998;2022-07-10T02:28:50;15.07;69.84
52656;SHT85;35474;51.032;6.998;2022-07-10T02:31:17;14.97;70.13
52656;SHT85;35474;51.032;6.998;2022-07-10T02:33:45;14.91;70.36
52656;SHT85;35474;51.032;6.998;2022-07-10T02:36:12;14.93;70.39
52656;SHT85;35474;51.032;6.998;2022-07-10T02:38:39;15.04;69.91
52656;SHT85;35474;51.032;6.998;2022-07-10T02:41:06;14.98;69.90
52656;SHT85;35474;51.032;6.998;2022-07-10T02:43:33;15.07;69.60
52656;SHT85;35474;51.032;6.998;2022-07-10T02:46:00;14.85;70.25
52656;SHT85;35474;51.032;6.998;2022-07-10T02:48:28;14.94;70.19
52656;SHT85;35474;51.032;6.998;2022-07-10T02:50:54;14.77;70.73
52656;SHT85;35474;51.032;6.998;2022-07-10T02:53:20;15.00;70.34
52656;SHT85;35474;51.032;6.998;2022-07-10T02:55:47;15.18;69.92
52656;SHT85;35474;51.032;6.998;2022-07-10T02:58:13;15.14;69.90
52656;SHT85;35474;51.032;6.998;2022-07-10T03:00:41;15.12;69.82
52656;SHT85;35474;51.032;6.998;2022-07-10T03:03:08;15.15;69.61
52656;SHT85;35474;51.032;6.998;2022-07-10T03:05:34;15.08;69.83
52656;SHT85;35474;51.032;6.998;2022-07-10T03:08:00;15.07;69.88
52656;SHT85;35474;51.032;6.998;2022-07-10T03:10:27;15.11;69.86
52656;SHT85;35474;51.032;6.998;2022-07-10T03:12:53;15.15;69.81
52656;SHT85;35474;51.032;6.998;2022-07-10T03:15:20;15.22;69.68
52656;SHT85;35474;51.032;6.998;2022-07-10T03:17:46;15.14;69.78
52656;SHT85;35474;51.032;6.998;2022-07-10T03:20:13;15.11;69.91
52656;SHT85;35474;51.032;6.998;2022-07-10T03:22:39;15.20;69.93
52656;SHT85;35474;51.032;6.998;2022-07-10T03:25:06;15.08;70.15
52656;SHT85;35474;51.032;6.998;2022-07-10T03:27:33;14.98;70.57
52656;SHT85;35474;51.032;6.998;2022-07-10T03:29:59;15.04;70.39
52656;SHT85;35474;51.032;6.998;2022-07-10T03:32:26;15.07;70.53
52656;SHT85;35474;51.032;6.998;2022-07-10T03:34:52;14.98;70.94
52656;SHT85;35474;51.032;6.998;2022-07-10T03:37:19;14.85;71.55
52656;SHT85;35474;51.032;6.998;2022-07-10T03:39:45;14.80;71.89
52656;SHT85;35474;51.032;6.998;2022-07-10T03:42:12;14.72;72.43
52656;SHT85;35474;51.032;6.998;2022-07-10T03:44:38;14.69;72.61
52656;SHT85;35474;51.032;6.998;2022-07-10T03:47:05;14.73;72.21
52656;SHT85;35474;51.032;6.998;2022-07-10T03:49:32;14.85;72.28
52656;SHT85;35474;51.032;6.998;2022-07-10T03:51:59;14.84;72.09
52656;SHT85;35474;51.032;6.998;2022-07-10T03:54:27;14.87;72.03
52656;SHT85;35474;51.032;6.998;2022-07-10T03:56:56;14.88;72.09
52656;SHT85;35474;51.032;6.998;2022-07-10T03:59:42;14.81;72.38
52656;SHT85;35474;51.032;6.998;2022-07-10T04:02:08;14.76;72.56
52656;SHT85;35474;51.032;6.998;2022-07-10T04:04:35;14.87;72.49
52656;SHT85;35474;51.032;6.998;2022-07-10T04:07:01;14.76;72.68
52656;SHT85;35474;51.032;6.998;2022-07-10T04:09:30;14.69;73.15
52656;SHT85;35474;51.032;6.998;2022-07-10T04:11:56;14.87;72.49
52656;SHT85;35474;51.032;6.998;2022-07-10T04:14:23;14.80;72.76
52656;SHT85;35474;51.032;6.998;2022-07-10T04:16:49;14.74;73.07
52656;SHT85;35474;51.032;6.998;2022-07-10T04:19:16;14.79;72.96
52656;SHT85;35474;51.032;6.998;2022-07-10T04:21:42;14.72;73.27
52656;SHT85;35474;51.032;6.998;2022-07-10T04:24:09;14.72;73.49
52656;SHT85;35474;51.032;6.998;2022-07-10T04:26:35;14.69;73.71
52656;SHT85;35474;51.032;6.998;2022-07-10T04:29:02;14.64;73.91
52656;SHT85;35474;51.032;6.998;2022-07-10T04:31:28;14.73;73.67
52656;SHT85;35474;51.032;6.998;2022-07-10T04:33:55;14.60;74.00
52656;SHT85;35474;51.032;6.998;2022-07-10T04:36:23;14.59;74.17
52656;SHT85;35474;51.032;6.998;2022-07-10T04:38:50;14.62;74.14
52656;SHT85;35474;51.032;6.998;2022-07-10T04:41:17;14.70;73.91
52656;SHT85;35474;51.032;6.998;2022-07-10T04:43:43;14.72;73.97
52656;SHT85;35474;51.032;6.998;2022-07-10T04:46:10;14.74;73.97
52656;SHT85;35474;51.032;6.998;2022-07-10T04:48:37;14.72;73.84
52656;SHT85;35474;51.032;6.998;2022-07-10T04:51:04;14.62;74.11
52656;SHT85;35474;51.032;6.998;2022-07-10T04:53:30;14.76;73.92
52656;SHT85;35474;51.032;6.998;2022-07-10T04:55:57;14.76;73.54
52656;SHT85;35474;51.032;6.998;2022-07-10T04:58:23;14.63;74.06
52656;SHT85;35474;51.032;6.998;2022-07-10T05:00:49;14.62;74.24
52656;SHT85;35474;51.032;6.998;2022-07-10T05:03:16;14.66;74.40
52656;SHT85;35474;51.032;6.998;2022-07-10T05:05:43;14.67;74.23
52656;SHT85;35474;51.032;6.998;2022-07-10T05:08:10;14.73;73.98
52656;SHT85;35474;51.032;6.998;2022-07-10T05:10:36;14.62;74.60
52656;SHT85;35474;51.032;6.998;2022-07-10T05:13:03;14.66;74.65
52656;SHT85;35474;51.032;6.998;2022-07-10T05:15:29;14.91;74.15
52656;SHT85;35474;51.032;6.998;2022-07-10T05:17:56;14.93;73.85
52656;SHT85;35474;51.032;6.998;2022-07-10T05:20:22;14.87;74.05
52656;SHT85;35474;51.032;6.998;2022-07-10T05:22:49;14.88;74.21
52656;SHT85;35474;51.032;6.998;2022-07-10T05:25:15;14.81;74.32
52656;SHT85;35474;51.032;6.998;2022-07-10T05:27:42;14.93;74.09
52656;SHT85;35474;51.032;6.998;2022-07-10T05:30:08;15.08;73.74
52656;SHT85;35474;51.032;6.998;2022-07-10T05:32:41;15.08;73.50
52656;SHT85;35474;51.032;6.998;2022-07-10T05:35:09;15.18;73.13
52656;SHT85;35474;51.032;6.998;2022-07-10T05:37:36;15.22;73.41
52656;SHT85;35474;51.032;6.998;2022-07-10T05:40:02;15.31;73.25
52656;SHT85;35474;51.032;6.998;2022-07-10T05:42:29;15.30;72.84
52656;SHT85;35474;51.032;6.998;2022-07-10T05:44:55;15.17;73.29
52656;SHT85;35474;51.032;6.998;2022-07-10T05:47:22;15.24;73.07
52656;SHT85;35474;51.032;6.998;2022-07-10T05:49:48;15.28;72.79
52656;SHT85;35474;51.032;6.998;2022-07-10T05:52:15;15.30;72.59
52656;SHT85;35474;51.032;6.998;2022-07-10T05:54:41;15.43;72.12
52656;SHT85;35474;51.032;6.998;2022-07-10T05:57:08;15.59;71.71
52656;SHT85;35474;51.032;6.998;2022-07-10T05:59:34;15.87;70.83
52656;SHT85;35474;51.032;6.998;2022-07-10T06:02:01;15.79;70.89
52656;SHT85;35474;51.032;6.998;2022-07-10T06:04:28;15.90;70.20
52656;SHT85;35474;51.032;6.998;2022-07-10T06:06:55;16.06;69.98
52656;SHT85;35474;51.032;6.998;2022-07-10T06:09:21;15.99;69.65
52656;SHT85;35474;51.032;6.998;2022-07-10T06:11:48;16.17;69.19
52656;SHT85;35474;51.032;6.998;2022-07-10T06:14:15;16.54;67.31
52656;SHT85;35474;51.032;6.998;2022-07-10T06:16:42;16.75;64.69
52656;SHT85;35474;51.032;6.998;2022-07-10T06:19:08;16.96;64.06
52656;SHT85;35474;51.032;6.998;2022-07-10T06:21:35;17.19;63.35
52656;SHT85;35474;51.032;6.998;2022-07-10T06:24:01;16.99;62.58
52656;SHT85;35474;51.032;6.998;2022-07-10T06:26:28;16.59;63.70
52656;SHT85;35474;51.032;6.998;2022-07-10T06:28:54;16.92;62.90
52656;SHT85;35474;51.032;6.998;2022-07-10T06:33:34;17.10;62.51
52656;SHT85;35474;51.032;6.998;2022-07-10T06:36:02;17.14;62.40
52656;SHT85;35474;51.032;6.998;2022-07-10T06:38:28;17.09;62.68
52656;SHT85;35474;51.032;6.998;2022-07-10T06:40:55;16.86;63.32
52656;SHT85;35474;51.032;6.998;2022-07-10T06:43:21;16.68;63.81
52656;SHT85;35474;51.032;6.998;2022-07-10T06:45:48;16.72;63.58
52656;SHT85;35474;51.032;6.998;2022-07-10T06:48:15;17.16;62.79
52656;SHT85;35474;51.032;6.998;2022-07-10T06:50:41;17.24;61.65
52656;SHT85;35474;51.032;6.998;2022-07-10T06:53:08;17.53;60.30
52656;SHT85;35474;51.032;6.998;2022-07-10T06:55:35;17.44;60.36
52656;SHT85;35474;51.032;6.998;2022-07-10T06:58:01;17.30;60.89
52656;SHT85;35474;51.032;6.998;2022-07-10T07:00:28;17.29;60.87
52656;SHT85;35474;51.032;6.998;2022-07-10T07:02:55;17.29;61.08
52656;SHT85;35474;51.032;6.998;2022-07-10T07:05:22;17.51;60.36
52656;SHT85;35474;51.032;6.998;2022-07-10T07:07:48;17.30;60.67
52656;SHT85;35474;51.032;6.998;2022-07-10T07:10:15;17.14;61.14
52656;SHT85;35474;51.032;6.998;2022-07-10T07:12:41;17.31;60.50
52656;SHT85;35474;51.032;6.998;2022-07-10T07:15:08;17.47;60.95
52656;SHT85;35474;51.032;6.998;2022-07-10T07:17:41;17.77;60.03
52656;SHT85;35474;51.032;6.998;2022-07-10T07:20:26;17.41;61.01
52656;SHT85;35474;51.032;6.998;2022-07-10T07:23:11;17.46;61.58
52656;SHT85;35474;51.032;6.998;2022-07-10T07:25:39;17.43;61.90
52656;SHT85;35474;51.032;6.998;2022-07-10T07:28:08;17.27;61.88
52656;SHT85;35474;51.032;6.998;2022-07-10T07:30:36;17.04;62.23
52656;SHT85;35474;51.032;6.998;2022-07-10T07:33:03;17.16;62.28
52656;SHT85;35474;51.032;6.998;2022-07-10T07:35:29;17.14;62.13
52656;SHT85;35474;51.032;6.998;2022-07-10T07:37:56;17.13;61.10
52656;SHT85;35474;51.032;6.998;2022-07-10T07:40:22;17.37;60.65
52656;SHT85;35474;51.032;6.998;2022-07-10T07:42:50;17.19;60.98
52656;SHT85;35474;51.032;6.998;2022-07-10T07:45:17;17.29;61.08
52656;SHT85;35474;51.032;6.998;2022-07-10T07:50:12;17.64;60.32
52656;SHT85;35474;51.032;6.998;2022-07-10T07:52:42;18.01;59.52
52656;SHT85;35474;51.032;6.998;2022-07-10T07:55:10;17.83;59.39
52656;SHT85;35474;51.032;6.998;2022-07-10T07:57:37;17.72;59.88
52656;SHT85;35474;51.032;6.998;2022-07-10T08:00:05;17.51;60.05
52656;SHT85;35474;51.032;6.998;2022-07-10T08:02:34;17.31;60.89
52656;SHT85;35474;51.032;6.998;2022-07-10T08:05:01;17.46;60.92
52656;SHT85;35474;51.032;6.998;2022-07-10T08:10:01;17.88;60.49
52656;SHT85;35474;51.032;6.998;2022-07-10T08:12:29;18.01;60.40
52656;SHT85;35474;51.032;6.998;2022-07-10T08:14:56;17.46;61.19
52656;SHT85;35474;51.032;6.998;2022-07-10T08:17:22;17.11;62.44
52656;SHT85;35474;51.032;6.998;2022-07-10T08:19:49;17.41;62.16
52656;SHT85;35474;51.032;6.998;2022-07-10T08:22:16;17.54;61.64
52656;SHT85;35474;51.032;6.998;2022-07-10T08:24:42;17.20;62.75
52656;SHT85;35474;51.032;6.998;2022-07-10T08:27:09;17.03;63.75
52656;SHT85;35474;51.032;6.998;2022-07-10T08:29:35;16.93;64.50
52656;SHT85;35474;51.032;6.998;2022-07-10T08:32:02;17.16;63.85
52656;SHT85;35474;51.032;6.998;2022-07-10T08:34:28;17.11;64.19
52656;SHT85;35474;51.032;6.998;2022-07-10T08:36:55;17.38;63.86
52656;SHT85;35474;51.032;6.998;2022-07-10T08:39:21;17.26;64.08
52656;SHT85;35474;51.032;6.998;2022-07-10T08:41:48;17.36;64.28
52656;SHT85;35474;51.032;6.998;2022-07-10T08:44:16;17.02;65.73
52656;SHT85;35474;51.032;6.998;2022-07-10T08:46:46;17.21;65.89
52656;SHT85;35474;51.032;6.998;2022-07-10T08:49:12;17.46;65.01
52656;SHT85;35474;51.032;6.998;2022-07-10T08:54:32;17.50;64.83
52656;SHT85;35474;51.032;6.998;2022-07-10T08:57:00;17.61;64.73
52656;SHT85;35474;51.032;6.998;2022-07-10T08:59:29;17.88;63.85
52656;SHT85;35474;51.032;6.998;2022-07-10T09:01:57;18.26;62.91
52656;SHT85;35474;51.032;6.998;2022-07-10T09:04:26;18.84;61.46
52656;SHT85;35474;51.032;6.998;2022-07-10T09:06:53;18.47;62.16
52656;SHT85;35474;51.032;6.998;2022-07-10T09:09:21;18.74;61.61
52656;SHT85;35474;51.032;6.998;2022-07-10T09:11:48;19.29;60.65
52656;SHT85;35474;51.032;6.998;2022-07-10T09:14:15;18.46;62.58
52656;SHT85;35474;51.032;6.998;2022-07-10T09:16:58;18.40;62.86
52656;SHT85;35474;51.032;6.998;2022-07-10T09:19:28;19.66;60.28
52656;SHT85;35474;51.032;6.998;2022-07-10T09:22:00;19.64;59.86
52656;SHT85;35474;51.032;6.998;2022-07-10T09:24:35;19.88;59.01
52656;SHT85;35474;51.032;6.998;2022-07-10T09:27:03;18.41;62.77
52656;SHT85;35474;51.032;6.998;2022-07-10T09:29:30;18.75;62.48
52656;SHT85;35474;51.032;6.998;2022-07-10T09:31:59;19.52;60.11
52656;SHT85;35474;51.032;6.998;2022-07-10T09:34:40;19.53;60.14
52656;SHT85;35474;51.032;6.998;2022-07-10T09:37:21;19.64;59.68
52656;SHT85;35474;51.032;6.998;2022-07-10T09:39:54;19.80;59.34
52656;SHT85;35474;51.032;6.998;2022-07-10T09:42:32;19.77;59.51
52656;SHT85;35474;51.032;6.998;2022-07-10T09:47:44;19.28;61.01
52656;SHT85;35474;51.032;6.998;2022-07-10T09:50:20;19.49;60.29
52656;SHT85;35474;51.032;6.998;2022-07-10T09:52:48;19.05;61.58
52656;SHT85;35474;51.032;6.998;2022-07-10T09:55:19;18.60;62.84
52656;SHT85;35474;51.032;6.998;2022-07-10T09:57:52;18.56;63.39
52656;SHT85;35474;51.032;6.998;2022-07-10T10:00:26;18.66;62.89
52656;SHT85;35474;51.032;6.998;2022-07-10T10:02:58;17.96;65.21
52656;SHT85;35474;51.032;6.998;2022-07-10T10:05:28;18.47;63.66
52656;SHT85;35474;51.032;6.998;2022-07-10T10:08:00;18.50;63.53
52656;SHT85;35474;51.032;6.998;2022-07-10T10:10:31;18.32;64.51
52656;SHT85;35474;51.032;6.998;2022-07-10T10:12:58;18.09;65.56
52656;SHT85;35474;51.032;6.998;2022-07-10T10:15:27;17.85;66.61
52656;SHT85;35474;51.032;6.998;2022-07-10T10:17:56;17.44;68.13
52656;SHT85;35474;51.032;6.998;2022-07-10T10:20:25;17.51;67.80
52656;SHT85;35474;51.032;6.998;2022-07-10T10:23:09;17.48;67.84
52656;SHT85;35474;51.032;6.998;2022-07-10T10:25:37;17.46;68.44
52656;SHT85;35474;51.032;6.998;2022-07-10T10:28:08;17.61;67.99
52656;SHT85;35474;51.032;6.998;2022-07-10T10:30:42;17.54;68.40
52656;SHT85;35474;51.032;6.998;2022-07-10T10:36:10;17.64;68.19
52656;SHT85;35474;51.032;6.998;2022-07-10T10:41:25;18.32;65.94
52656;SHT85;35474;51.032;6.998;2022-07-10T10:46:35;18.09;66.35
52656;SHT85;35474;51.032;6.998;2022-07-10T10:49:20;18.02;66.96
52656;SHT85;35474;51.032;6.998;2022-07-10T10:52:00;18.06;66.85
52656;SHT85;35474;51.032;6.998;2022-07-10T10:59:58;17.53;69.26
52656;SHT85;35474;51.032;6.998;2022-07-10T11:02:33;18.04;68.02
52656;SHT85;35474;51.032;6.998;2022-07-10T11:07:59;18.99;64.15
52656;SHT85;35474;51.032;6.998;2022-07-10T11:12:57;18.30;66.94
52656;SHT85;35474;51.032;6.998;2022-07-10T11:15:27;18.17;67.32
52656;SHT85;35474;51.032;6.998;2022-07-10T11:18:06;18.56;66.78
52656;SHT85;35474;51.032;6.998;2022-07-10T11:20:37;18.36;67.09
52656;SHT85;35474;51.032;6.998;2022-07-10T11:23:30;18.84;65.90
52656;SHT85;35474;51.032;6.998;2022-07-10T11:26:34;18.08;67.55
52656;SHT85;35474;51.032;6.998;2022-07-10T11:29:03;18.43;66.85
52656;SHT85;35474;51.032;6.998;2022-07-10T11:31:31;18.63;66.70
52656;SHT85;35474;51.032;6.998;2022-07-10T11:34:04;18.74;66.63
52656;SHT85;35474;51.032;6.998;2022-07-10T11:36:30;18.95;66.00
52656;SHT85;35474;51.032;6.998;2022-07-10T11:39:01;18.57;67.35
52656;SHT85;35474;51.032;6.998;2022-07-10T11:41:31;18.56;67.06
52656;SHT85;35474;51.032;6.998;2022-07-10T11:43:59;18.81;66.95
52656;SHT85;35474;51.032;6.998;2022-07-10T11:46:28;19.19;65.77
52656;SHT85;35474;51.032;6.998;2022-07-10T11:49:03;20.00;62.99
52656;SHT85;35474;51.032;6.998;2022-07-10T11:51:33;19.49;64.27
52656;SHT85;35474;51.032;6.998;2022-07-10T11:54:05;19.26;64.76
52656;SHT85;35474;51.032;6.998;2022-07-10T11:56:34;18.68;67.02
52656;SHT85;35474;51.032;6.998;2022-07-10T11:59:03;18.39;68.06
52656;SHT85;35474;51.032;6.998;2022-07-10T12:01:44;18.32;68.61
52656;SHT85;35474;51.032;6.998;2022-07-10T12:04:13;18.40;68.77
52656;SHT85;35474;51.032;6.998;2022-07-10T12:06:41;18.30;69.07
52656;SHT85;35474;51.032;6.998;2022-07-10T12:09:09;17.50;72.27
52656;SHT85;35474;51.032;6.998;2022-07-10T12:11:40;17.46;73.00
52656;SHT85;35474;51.032;6.998;2022-07-10T12:14:10;17.30;74.14
52656;SHT85;35474;51.032;6.998;2022-07-10T12:16:46;17.71;73.17
52656;SHT85;35474;51.032;6.998;2022-07-10T12:19:15;17.77;72.91
52656;SHT85;35474;51.032;6.998;2022-07-10T12:21:44;17.43;74.74
52656;SHT85;35474;51.032;6.998;2022-07-10T12:24:12;17.33;76.71
52656;SHT85;35474;51.032;6.998;2022-07-10T12:26:40;16.96;78.33
52656;SHT85;35474;51.032;6.998;2022-07-10T12:29:18;17.04;78.72
52656;SHT85;35474;51.032;6.998;2022-07-10T12:31:52;17.20;77.86
52656;SHT85;35474;51.032;6.998;2022-07-10T12:34:33;17.48;75.92
52656;SHT85;35474;51.032;6.998;2022-07-10T12:37:06;17.91;74.64
52656;SHT85;35474;51.032;6.998;2022-07-10T12:39:37;18.27;73.17
52656;SHT85;35474;51.032;6.998;2022-07-10T12:42:06;18.43;72.35
52656;SHT85;35474;51.032;6.998;2022-07-10T12:44:33;18.94;70.38
52656;SHT85;35474;51.032;6.998;2022-07-10T12:47:07;19.45;68.27
52656;SHT85;35474;51.032;6.998;2022-07-10T12:49:51;19.22;69.07
52656;SHT85;35474;51.032;6.998;2022-07-10T12:52:35;19.56;67.99
52656;SHT85;35474;51.032;6.998;2022-07-10T13:02:58;18.67;70.26
52656;SHT85;35474;51.032;6.998;2022-07-10T13:05:29;18.58;70.44
52656;SHT85;35474;51.032;6.998;2022-07-10T13:08:04;18.41;71.73
52656;SHT85;35474;51.032;6.998;2022-07-10T13:10:33;18.05;74.60
52656;SHT85;35474;51.032;6.998;2022-07-10T13:13:05;17.88;75.14
52656;SHT85;35474;51.032;6.998;2022-07-10T13:15:32;18.01;73.89
52656;SHT85;35474;51.032;6.998;2022-07-10T13:18:12;17.92;72.88
52656;SHT85;35474;51.032;6.998;2022-07-10T13:20:40;18.10;72.32
52656;SHT85;35474;51.032;6.998;2022-07-10T13:23:07;18.29;71.24
52656;SHT85;35474;51.032;6.998;2022-07-10T13:25:34;18.87;70.00
52656;SHT85;35474;51.032;6.998;2022-07-10T13:28:01;19.76;67.41
52656;SHT85;35474;51.032;6.998;2022-07-10T13:30:28;20.10;65.51
52656;SHT85;35474;51.032;6.998;2022-07-10T13:32:54;19.41;67.26
52656;SHT85;35474;51.032;6.998;2022-07-10T13:35:21;19.31;67.82
52656;SHT85;35474;51.032;6.998;2022-07-10T13:37:47;19.39;67.61
52656;SHT85;35474;51.032;6.998;2022-07-10T13:40:14;19.25;68.04
52656;SHT85;35474;51.032;6.998;2022-07-10T13:42:41;19.67;67.26
52656;SHT85;35474;51.032;6.998;2022-07-10T13:45:07;20.05;66.24
52656;SHT85;35474;51.032;6.998;2022-07-10T13:47:34;19.77;65.72
52656;SHT85;35474;51.032;6.998;2022-07-10T13:50:01;20.72;63.75
52656;SHT85;35474;51.032;6.998;2022-07-10T13:52:28;21.78;61.10
52656;SHT85;35474;51.032;6.998;2022-07-10T13:54:54;23.11;56.75
52656;SHT85;35474;51.032;6.998;2022-07-10T13:57:21;24.04;55.05
52656;SHT85;35474;51.032;6.998;2022-07-10T13:59:49;24.64;53.49
52656;SHT85;35474;51.032;6.998;2022-07-10T14:02:16;24.23;54.07
52656;SHT85;35474;51.032;6.998;2022-07-10T14:04:42;23.63;54.20
52656;SHT85;35474;51.032;6.998;2022-07-10T14:07:09;21.89;59.11
52656;SHT85;35474;51.032;6.998;2022-07-10T14:09:35;21.90;58.43
52656;SHT85;35474;51.032;6.998;2022-07-10T14:12:02;21.51;59.02
52656;SHT85;35474;51.032;6.998;2022-07-10T14:14:29;20.55;61.85
52656;SHT85;35474;51.032;6.998;2022-07-10T14:16:55;21.42;59.97
52656;SHT85;35474;51.032;6.998;2022-07-10T14:19:22;20.82;62.02
52656;SHT85;35474;51.032;6.998;2022-07-10T14:21:48;21.30;60.40
52656;SHT85;35474;51.032;6.998;2022-07-10T14:24:15;21.48;59.45
52656;SHT85;35474;51.032;6.998;2022-07-10T14:26:42;21.37;59.84
52656;SHT85;35474;51.032;6.998;2022-07-10T14:29:08;20.90;60.93
52656;SHT85;35474;51.032;6.998;2022-07-10T14:31:34;20.44;62.60
52656;SHT85;35474;51.032;6.998;2022-07-10T14:34:01;20.62;61.76
52656;SHT85;35474;51.032;6.998;2022-07-10T14:36:28;20.56;62.04
52656;SHT85;35474;51.032;6.998;2022-07-10T14:38:55;20.48;62.39
52656;SHT85;35474;51.032;6.998;2022-07-10T14:41:22;20.86;61.69
52656;SHT85;35474;51.032;6.998;2022-07-10T14:43:49;20.87;61.25
52656;SHT85;35474;51.032;6.998;2022-07-10T14:46:16;20.99;60.63
52656;SHT85;35474;51.032;6.998;2022-07-10T14:48:43;20.93;60.59
52656;SHT85;35474;51.032;6.998;2022-07-10T14:51:10;20.90;60.84
52656;SHT85;35474;51.032;6.998;2022-07-10T14:53:36;20.76;60.94
52656;SHT85;35474;51.032;6.998;2022-07-10T14:56:04;20.61;61.23
52656;SHT85;35474;51.032;6.998;2022-07-10T14:58:31;20.49;61.63
52656;SHT85;35474;51.032;6.998;2022-07-10T15:01:18;20.45;61.97
52656;SHT85;35474;51.032;6.998;2022-07-10T15:03:45;20.36;62.54
52656;SHT85;35474;51.032;6.998;2022-07-10T15:06:11;20.41;62.46
52656;SHT85;35474;51.032;6.998;2022-07-10T15:08:37;20.53;61.68
52656;SHT85;35474;51.032;6.998;2022-07-10T15:11:04;20.55;61.88
52656;SHT85;35474;51.032;6.998;2022-07-10T15:13:33;20.49;61.94
52656;SHT85;35474;51.032;6.998;2022-07-10T15:15:59;20.39;61.66
52656;SHT85;35474;51.032;6.998;2022-07-10T15:18:27;20.20;62.64
52656;SHT85;35474;51.032;6.998;2022-07-10T15:20:54;20.44;62.71
52656;SHT85;35474;51.032;6.998;2022-07-10T15:23:20;20.55;62.78
52656;SHT85;35474;51.032;6.998;2022-07-10T15:25:47;20.41;63.13
52656;SHT85;35474;51.032;6.998;2022-07-10T15:28:13;20.36;62.98
52656;SHT85;35474;51.032;6.998;2022-07-10T15:30:40;20.45;62.78
52656;SHT85;35474;51.032;6.998;2022-07-10T15:33:09;20.41;62.96
52656;SHT85;35474;51.032;6.998;2022-07-10T15:35:35;20.46;63.09
52656;SHT85;35474;51.032;6.998;2022-07-10T15:38:02;20.76;62.63
52656;SHT85;35474;51.032;6.998;2022-07-10T15:40:29;20.76;62.73
52656;SHT85;35474;51.032;6.998;2022-07-10T15:42:56;21.03;61.99
52656;SHT85;35474;51.032;6.998;2022-07-10T15:45:24;21.11;62.09
52656;SHT85;35474;51.032;6.998;2022-07-10T15:47:51;21.13;62.28
52656;SHT85;35474;51.032;6.998;2022-07-10T15:50:18;21.11;61.66
52656;SHT85;35474;51.032;6.998;2022-07-10T15:52:45;21.00;61.97
52656;SHT85;35474;51.032;6.998;2022-07-10T15:55:12;21.07;61.65
52656;SHT85;35474;51.032;6.998;2022-07-10T15:57:39;21.34;61.26
52656;SHT85;35474;51.032;6.998;2022-07-10T16:00:07;21.48;60.81
52656;SHT85;35474;51.032;6.998;2022-07-10T16:02:35;21.30;60.62
52656;SHT85;35474;51.032;6.998;2022-07-10T16:05:03;21.24;60.62
52656;SHT85;35474;51.032;6.998;2022-07-10T16:07:30;21.26;60.36
52656;SHT85;35474;51.032;6.998;2022-07-10T16:09:56;21.28;60.44
52656;SHT85;35474;51.032;6.998;2022-07-10T16:12:23;21.37;60.27
52656;SHT85;35474;51.032;6.998;2022-07-10T16:14:50;21.41;60.13
52656;SHT85;35474;51.032;6.998;2022-07-10T16:17:17;21.34;60.52
52656;SHT85;35474;51.032;6.998;2022-07-10T16:19:43;21.23;61.17